createdAt,value
2023-02-25T00:03:00.651Z,56.46
2023-02-25T00:13:17.494Z,56.53
2023-02-25T00:23:22.058Z,56.78
2023-02-25T00:33:25.666Z,56.66
2023-02-25T00:43:32.409Z,57.04
2023-02-25T00:53:39.305Z,56.80
2023-02-25T01:03:43.159Z,56.84
2023-02-25T01:13:48.950Z,56.81
2023-02-25T01:24:00.038Z,56.77
2023-02-25T01:34:08.694Z,56.43
2023-02-25T01:44:21.264Z,56.76
2023-02-25T01:54:27.675Z,56.70
2023-02-25T02:04:32.203Z,56.41
2023-02-25T02:14:42.468Z,56.42
2023-02-25T02:25:00.249Z,56.50
2023-02-25T02:35:40.677Z,56.64
2023-02-25T02:46:15.934Z,57.03
2023-02-25T02:56:23.099Z,56.90
2023-02-25T03:06:35.471Z,56.82
2023-02-25T03:16:43.189Z,56.74
2023-02-25T03:26:46.980Z,56.91
2023-02-25T03:37:04.269Z,56.79
2023-02-25T03:47:13.213Z,57.08
2023-02-25T03:57:20.257Z,57.09
2023-02-25T04:07:23.930Z,56.99
2023-02-25T04:17:28.117Z,56.90
2023-02-25T04:27:32.932Z,56.92
2023-02-25T04:37:39.257Z,56.81
2023-02-25T04:47:42.931Z,57.16
2023-02-25T04:57:48.593Z,57.31
2023-02-25T05:07:52.228Z,57.59
2023-02-25T05:17:55.762Z,57.45
2023-02-25T05:28:00.174Z,57.84
2023-02-25T05:38:05.872Z,58.18
2023-02-25T05:48:09.536Z,58.14
2023-02-25T05:58:13.882Z,57.89
2023-02-25T06:08:19.837Z,57.97
2023-02-25T06:18:23.508Z,57.59
2023-02-25T06:28:27.052Z,57.58
2023-02-25T06:38:33.004Z,57.24
2023-02-25T06:48:36.994Z,57.02
2023-02-25T06:58:41.318Z,56.92
2023-02-25T07:08:46.854Z,56.35
2023-02-25T07:18:51.187Z,56.46
2023-02-25T07:28:57.259Z,56.32
2023-02-25T07:39:04.413Z,56.72
2023-02-25T07:49:11.297Z,57.48
2023-02-25T07:59:15.733Z,57.27
2023-02-25T08:09:21.374Z,56.54
2023-02-25T08:19:25.229Z,56.34
2023-02-25T08:29:29.082Z,55.89
2023-02-25T08:39:36.070Z,55.09
2023-02-25T08:49:43.747Z,55.14
2023-02-25T08:59:47.430Z,55.24
2023-02-25T09:09:51.042Z,55.43
2023-02-25T09:19:54.663Z,55.35
2023-02-25T09:29:59.835Z,55.25
2023-02-25T09:40:06.552Z,55.81
2023-02-25T09:50:46.747Z,55.90
2023-02-25T10:01:07.036Z,56.06
2023-02-25T10:11:36.448Z,56.25
2023-02-25T10:21:46.023Z,55.67
2023-02-25T10:31:50.510Z,55.21
2023-02-25T10:41:54.565Z,54.89
2023-02-25T10:52:06.500Z,54.12
2023-02-25T11:02:33.409Z,53.13
2023-02-25T11:12:50.933Z,54.02
2023-02-25T11:22:57.781Z,54.51
2023-02-25T11:33:06.447Z,53.67
2023-02-25T11:53:38.318Z,53.28
2023-02-25T12:04:04.328Z,52.70
2023-02-25T12:14:30.964Z,52.25
2023-02-25T12:24:51.334Z,52.65
2023-02-25T12:35:28.115Z,53.22
2023-02-25T12:45:41.675Z,54.39
2023-02-25T12:56:08.209Z,55.02
2023-02-25T13:06:33.646Z,55.50
2023-02-25T13:16:43.503Z,56.15
2023-02-25T13:26:52.313Z,57.06
2023-02-25T13:37:01.880Z,57.08
2023-02-25T13:47:21.350Z,56.35
2023-02-25T13:57:29.726Z,57.30
2023-02-25T14:08:12.277Z,57.87
2023-02-25T14:18:45.049Z,57.58
2023-02-25T14:29:10.193Z,57.69
2023-02-25T14:39:28.280Z,58.09
2023-02-25T14:49:45.217Z,58.28
2023-02-25T15:00:07.084Z,58.56
2023-02-25T15:10:40.919Z,57.85
2023-02-25T15:20:47.724Z,57.97
2023-02-25T15:31:00.905Z,58.68
2023-02-25T15:41:24.893Z,58.91
2023-02-25T15:51:47.537Z,59.61
2023-02-25T16:01:51.408Z,60.26
2023-02-25T16:12:04.245Z,61.55
2023-02-25T16:22:22.019Z,62.92
2023-02-25T16:32:32.790Z,64.40
2023-02-25T16:42:36.479Z,66.17
2023-02-25T16:52:50.857Z,66.91
2023-02-25T17:03:07.283Z,67.58
2023-02-25T17:13:19.334Z,67.91
2023-02-25T17:23:24.709Z,67.79
2023-02-25T17:33:29.405Z,68.72
2023-02-25T17:43:39.733Z,69.91
2023-02-25T17:53:56.136Z,70.54
2023-02-25T18:04:06.340Z,70.79
2023-02-25T18:14:36.031Z,71.09
2023-02-25T18:24:53.307Z,71.51
2023-02-25T18:34:59.559Z,71.88
2023-02-25T18:45:22.308Z,71.84
2023-02-25T18:55:33.217Z,72.46
2023-02-25T19:05:37.781Z,72.86
2023-02-25T19:15:43.317Z,72.83
2023-02-25T19:25:55.289Z,72.80
2023-02-25T19:36:02.233Z,72.80
2023-02-25T19:46:12.388Z,73.00
2023-02-25T19:56:19.062Z,73.79
2023-02-25T20:06:23.740Z,73.41
2023-02-25T20:16:28.013Z,73.26
2023-02-25T20:26:33.760Z,73.27
2023-02-25T20:37:11.179Z,73.51
2023-02-25T20:47:22.159Z,73.04
2023-02-25T20:57:27.248Z,72.81
2023-02-25T21:07:34.102Z,71.95
2023-02-25T21:17:37.947Z,71.29
2023-02-25T21:27:42.015Z,70.87
2023-02-25T21:37:47.924Z,70.09
2023-02-25T21:47:54.208Z,68.57
2023-02-25T21:58:00.044Z,67.95
2023-02-25T22:08:05.129Z,67.29
2023-02-25T22:18:08.702Z,67.57
2023-02-25T22:28:13.931Z,67.92
2023-02-25T22:38:17.764Z,68.30
2023-02-25T22:48:21.420Z,68.41
2023-02-25T22:58:25.004Z,68.30
2023-02-25T23:18:51.247Z,68.48
2023-02-25T23:29:00.247Z,68.65
2023-02-25T23:39:05.737Z,68.18
2023-02-25T23:49:13.956Z,67.78
2023-02-25T23:59:18.485Z,67.71
